createdAt,value
2019-03-12T00:00:09.065Z,26.17
2019-03-12T00:02:37.643Z,27.65
2019-03-12T00:05:08.138Z,26.33
2019-03-12T00:07:36.721Z,29.37
2019-03-12T00:10:07.414Z,31.70
2019-03-12T00:12:35.996Z,32.25
2019-03-12T00:15:06.094Z,31.35
2019-03-12T00:17:34.669Z,30.00
2019-03-12T00:20:04.096Z,32.55
2019-03-12T00:22:32.669Z,26.50
2019-03-12T00:25:01.238Z,30.12
2019-03-12T00:27:29.815Z,33.23
2019-03-12T00:29:58.361Z,36.10
2019-03-12T00:32:26.947Z,39.42
2019-03-12T00:34:55.505Z,40.05
2019-03-12T00:37:24.078Z,38.30
2019-03-12T00:39:52.658Z,42.33
2019-03-12T00:42:21.226Z,42.62
2019-03-12T00:44:49.790Z,44.50
2019-03-12T00:47:18.365Z,46.05
2019-03-12T00:49:46.916Z,50.05
2019-03-12T00:52:15.497Z,43.92
2019-03-12T00:54:44.057Z,44.25
2019-03-12T00:57:12.673Z,39.78
2019-03-12T00:59:41.238Z,44.50
2019-03-12T01:02:09.881Z,50.70
2019-03-12T01:04:38.447Z,47.43
2019-03-12T01:07:07.025Z,42.73
2019-03-12T01:09:35.585Z,45.63
2019-03-12T01:12:04.542Z,42.40
2019-03-12T01:14:33.103Z,49.83
2019-03-12T01:17:01.677Z,44.18
2019-03-12T01:19:30.319Z,49.27
2019-03-12T01:21:58.817Z,49.03
2019-03-12T01:24:27.378Z,48.75
2019-03-12T01:26:55.958Z,43.68
2019-03-12T01:29:24.516Z,48.23
2019-03-12T01:31:53.097Z,44.33
2019-03-12T01:34:21.709Z,51.28
2019-03-12T01:36:50.289Z,48.23
2019-03-12T01:39:18.840Z,50.85
2019-03-12T01:41:47.429Z,51.70
2019-03-12T01:44:15.985Z,50.30
2019-03-12T01:46:44.546Z,53.35
2019-03-12T01:49:13.121Z,57.98
2019-03-12T01:51:41.681Z,51.60
2019-03-12T01:54:10.262Z,49.95
2019-03-12T01:56:38.823Z,64.97
2019-03-12T01:59:07.410Z,47.95
2019-03-12T02:01:35.988Z,49.95
2019-03-12T02:04:04.619Z,57.33
2019-03-12T02:06:33.181Z,52.17
2019-03-12T02:09:01.760Z,53.48
2019-03-12T02:11:30.312Z,66.22
2019-03-12T02:13:58.886Z,50.63
2019-03-12T02:16:27.442Z,57.95
2019-03-12T02:18:56.034Z,54.50
2019-03-12T02:21:24.601Z,48.78
2019-03-12T02:23:53.186Z,48.68
2019-03-12T02:26:21.737Z,55.28
2019-03-12T02:28:50.314Z,45.80
2019-03-12T02:31:18.869Z,43.58
2019-03-12T02:33:47.450Z,47.93
2019-03-12T02:36:16.010Z,43.08
2019-03-12T02:38:44.590Z,51.18
2019-03-12T02:41:13.140Z,36.77
2019-03-12T02:43:41.742Z,39.98
2019-03-12T02:46:10.278Z,37.73
2019-03-12T02:48:38.864Z,36.85
2019-03-12T02:51:07.419Z,34.78
2019-03-12T02:53:36.014Z,32.55
2019-03-12T02:56:04.553Z,34.60
2019-03-12T02:58:33.135Z,32.93
2019-03-12T03:01:01.708Z,39.65
2019-03-12T03:03:30.268Z,33.18
2019-03-12T03:06:00.476Z,35.25
2019-03-12T03:08:30.691Z,28.00
2019-03-12T03:10:59.245Z,30.32
2019-03-12T03:13:27.840Z,29.90
2019-03-12T03:15:56.386Z,36.38
2019-03-12T03:18:24.970Z,41.58
2019-03-12T03:20:54.098Z,43.83
2019-03-12T03:23:22.672Z,43.13
2019-03-12T03:25:51.229Z,40.73
2019-03-12T03:28:19.809Z,40.30
2019-03-12T03:30:48.379Z,44.40
2019-03-12T03:33:16.968Z,48.60
2019-03-12T03:35:45.517Z,46.45
2019-03-12T03:38:14.085Z,39.55
2019-03-12T03:40:42.655Z,34.63
2019-03-12T03:43:11.233Z,35.70
2019-03-12T03:45:39.787Z,31.25
2019-03-12T03:48:08.367Z,43.13
2019-03-12T03:50:36.931Z,27.70
2019-03-12T03:53:05.513Z,32.42
2019-03-12T03:55:34.134Z,33.75
2019-03-12T03:58:02.794Z,36.38
2019-03-12T04:00:31.365Z,35.55
2019-03-12T04:03:00.332Z,34.13
2019-03-12T04:05:28.886Z,31.20
2019-03-12T04:07:57.458Z,27.37
2019-03-12T04:10:26.020Z,29.32
2019-03-12T04:12:54.593Z,29.50
2019-03-12T04:15:23.144Z,25.25
2019-03-12T04:17:51.703Z,30.72
2019-03-12T04:20:20.280Z,34.10
2019-03-12T04:22:48.985Z,30.80
2019-03-12T04:25:17.639Z,23.40
2019-03-12T04:27:46.170Z,23.45
2019-03-12T04:30:19.339Z,24.75
2019-03-12T04:32:47.889Z,24.82
2019-03-12T04:35:19.578Z,27.58
2019-03-12T04:37:48.134Z,25.50
2019-03-12T04:40:16.796Z,27.35
2019-03-12T04:42:45.341Z,24.82
2019-03-12T04:45:17.558Z,27.02
2019-03-12T04:47:46.112Z,30.75
2019-03-12T04:50:15.328Z,22.87
2019-03-12T04:52:43.884Z,22.55
2019-03-12T04:55:14.401Z,32.63
2019-03-12T04:57:43.095Z,24.52
2019-03-12T05:00:20.762Z,23.87
2019-03-12T05:02:49.326Z,28.30
2019-03-12T05:05:17.903Z,34.83
2019-03-12T05:07:46.529Z,28.70
2019-03-12T05:10:16.258Z,31.82
2019-03-12T05:12:44.880Z,38.55
2019-03-12T05:15:17.637Z,38.88
2019-03-12T05:17:47.253Z,37.88
2019-03-12T05:20:16.304Z,34.45
2019-03-12T05:22:44.911Z,44.03
2019-03-12T05:25:14.688Z,35.03
2019-03-12T05:27:43.578Z,39.08
2019-03-12T05:30:17.189Z,35.88
2019-03-12T05:32:45.808Z,29.10
2019-03-12T05:35:14.724Z,30.57
2019-03-12T05:37:43.336Z,32.93
2019-03-12T05:40:13.257Z,39.08
2019-03-12T05:42:41.881Z,28.65
2019-03-12T05:45:12.825Z,30.85
2019-03-12T05:47:41.381Z,39.10
2019-03-12T05:50:14.532Z,32.20
2019-03-12T05:52:43.090Z,31.90
2019-03-12T05:55:14.077Z,31.87
2019-03-12T05:57:42.629Z,26.42
2019-03-12T06:00:18.142Z,28.02
2019-03-12T06:02:46.697Z,35.50
2019-03-12T06:05:15.285Z,29.90
2019-03-12T06:07:43.853Z,26.05
2019-03-12T06:10:16.408Z,13.85
2019-03-12T06:12:44.967Z,19.40
2019-03-12T06:15:17.018Z,17.55
2019-03-12T06:17:45.635Z,24.80
2019-03-12T06:20:15.190Z,20.48
2019-03-12T06:22:43.766Z,16.82
2019-03-12T06:25:12.767Z,18.50
2019-03-12T06:27:41.321Z,24.50
2019-03-12T06:30:13.306Z,23.83
2019-03-12T06:32:59.880Z,15.83
2019-03-12T06:35:30.100Z,21.00
2019-03-12T06:38:02.821Z,24.63
2019-03-12T06:40:39.156Z,21.05
2019-03-12T06:43:09.298Z,20.65
2019-03-12T06:45:42.234Z,16.02
2019-03-12T06:48:28.682Z,14.10
2019-03-12T06:50:58.909Z,13.68
2019-03-12T06:53:34.986Z,19.50
2019-03-12T06:56:14.493Z,13.48
2019-03-12T06:59:00.933Z,10.85
2019-03-12T07:01:37.042Z,9.85
2019-03-12T07:04:12.784Z,10.05
2019-03-12T07:06:45.768Z,8.65
2019-03-12T07:09:24.774Z,18.73
2019-03-12T07:11:57.866Z,14.07
2019-03-12T07:14:28.087Z,7.65
2019-03-12T07:17:04.496Z,8.95
2019-03-12T07:19:43.809Z,7.22
2019-03-12T07:22:16.789Z,12.00
2019-03-12T07:25:03.463Z,7.35
2019-03-12T07:27:39.538Z,10.32
2019-03-12T07:30:13.114Z,8.70
2019-03-12T07:32:59.970Z,16.62
2019-03-12T07:35:45.245Z,5.12
2019-03-12T07:38:24.674Z,9.08
2019-03-12T07:41:01.082Z,4.92
2019-03-12T07:43:31.278Z,5.60
2019-03-12T07:46:04.204Z,5.15
2019-03-12T07:48:34.506Z,7.83
2019-03-12T07:51:21.393Z,6.72
2019-03-12T07:53:59.275Z,8.90
2019-03-12T07:56:32.192Z,7.42
2019-03-12T07:59:09.185Z,5.72
2019-03-12T08:01:39.505Z,8.58
2019-03-12T08:04:18.818Z,5.53
2019-03-12T08:06:51.729Z,5.60
2019-03-12T08:09:36.654Z,7.10
2019-03-12T08:12:06.862Z,6.45
2019-03-12T08:14:37.063Z,6.40
2019-03-12T08:17:25.055Z,4.28
2019-03-12T08:19:58.215Z,4.87
2019-03-12T08:22:28.430Z,13.83
2019-03-12T08:25:07.162Z,4.00
2019-03-12T08:27:37.395Z,6.62
2019-03-12T08:30:13.745Z,11.20
2019-03-12T08:32:43.959Z,3.60
2019-03-12T08:35:14.217Z,4.15
2019-03-12T08:37:50.244Z,5.28
2019-03-12T08:40:36.737Z,8.30
2019-03-12T08:43:06.954Z,6.10
2019-03-12T08:45:40.092Z,5.15
2019-03-12T08:48:13.186Z,5.97
2019-03-12T08:50:46.270Z,5.05
2019-03-12T08:53:16.490Z,7.97
2019-03-12T08:55:58.925Z,6.05
2019-03-12T08:58:31.837Z,4.05
2019-03-12T09:01:04.705Z,5.05
2019-03-12T09:03:43.754Z,5.05
2019-03-12T09:06:29.295Z,3.65
2019-03-12T09:09:02.029Z,3.60
2019-03-12T09:11:35.146Z,3.80
2019-03-12T09:14:05.450Z,3.67
2019-03-12T09:16:38.353Z,2.52
2019-03-12T09:19:26.643Z,5.20
2019-03-12T09:22:13.465Z,3.65
2019-03-12T09:24:55.903Z,4.12
2019-03-12T09:27:29.205Z,6.15
2019-03-12T09:29:59.405Z,4.92
2019-03-12T09:32:41.317Z,4.65
2019-03-12T09:35:11.509Z,5.42
2019-03-12T09:37:50.664Z,4.12
2019-03-12T09:40:30.085Z,9.00
2019-03-12T09:43:00.293Z,4.85
2019-03-12T09:45:39.502Z,4.60
2019-03-12T09:48:09.713Z,3.42
2019-03-12T09:50:39.900Z,6.15
2019-03-12T09:53:10.115Z,5.80
2019-03-12T09:55:43.011Z,6.17
2019-03-12T09:58:31.017Z,4.87
2019-03-12T10:01:17.536Z,6.05
2019-03-12T10:03:50.478Z,6.75
2019-03-12T10:06:29.501Z,7.03
2019-03-12T10:09:11.476Z,4.37
2019-03-12T10:11:41.697Z,8.90
2019-03-12T10:14:28.415Z,4.28
2019-03-12T10:16:58.630Z,3.20
2019-03-12T10:19:41.113Z,6.40
2019-03-12T10:22:14.033Z,6.67
2019-03-12T10:24:47.022Z,10.28
2019-03-12T10:27:17.218Z,6.72
2019-03-12T10:29:50.736Z,3.90
2019-03-12T10:32:37.769Z,5.60
2019-03-12T10:35:09.327Z,7.60
2019-03-12T10:37:42.489Z,8.38
2019-03-12T10:40:32.224Z,4.37
2019-03-12T10:43:03.932Z,4.67
2019-03-12T10:45:40.519Z,3.62
2019-03-12T10:48:11.191Z,6.28
2019-03-12T10:50:40.371Z,6.87
2019-03-12T10:53:09.450Z,8.83
2019-03-12T10:55:38.685Z,6.25
2019-03-12T10:58:07.895Z,9.80
2019-03-12T11:00:37.992Z,3.22
2019-03-12T11:03:07.212Z,3.95
2019-03-12T11:05:45.926Z,5.50
2019-03-12T11:08:07.501Z,3.95
2019-03-12T11:10:36.830Z,4.87
2019-03-12T11:13:05.408Z,8.23
2019-03-12T11:15:34.045Z,5.40
2019-03-12T11:18:04.280Z,3.87
2019-03-12T11:20:32.868Z,4.90
2019-03-12T11:23:01.409Z,4.28
2019-03-12T11:25:29.984Z,5.00
2019-03-12T11:27:58.542Z,9.68
2019-03-12T11:30:27.118Z,3.58
2019-03-12T11:32:55.670Z,2.65
2019-03-12T11:35:24.249Z,8.70
2019-03-12T11:37:52.806Z,10.32
2019-03-12T11:40:23.885Z,7.33
2019-03-12T11:42:52.473Z,5.17
2019-03-12T11:45:34.782Z,4.10
2019-03-12T11:47:51.377Z,3.20
2019-03-12T11:50:22.360Z,10.35
2019-03-12T11:52:56.173Z,7.10
2019-03-12T11:55:21.158Z,4.17
2019-03-12T11:57:49.809Z,3.05
2019-03-12T12:00:28.339Z,3.47
2019-03-12T12:03:00.278Z,9.10
2019-03-12T12:05:27.666Z,7.00
2019-03-12T12:07:56.279Z,5.87
2019-03-12T12:10:24.863Z,8.95
2019-03-12T12:12:53.506Z,10.60
2019-03-12T12:15:22.125Z,4.65
2019-03-12T12:17:50.698Z,7.87
2019-03-12T12:20:28.976Z,4.60
2019-03-12T12:22:49.541Z,12.33
2019-03-12T12:25:19.901Z,6.33
2019-03-12T12:27:48.474Z,6.67
2019-03-12T12:30:20.118Z,7.08
2019-03-12T12:32:48.756Z,4.25
2019-03-12T12:35:17.300Z,8.63
2019-03-12T12:37:45.881Z,9.30
2019-03-12T12:40:22.300Z,8.38
2019-03-12T12:42:50.881Z,4.75
2019-03-12T12:45:25.405Z,2.65
2019-03-12T12:47:53.987Z,4.25
2019-03-12T12:50:22.675Z,6.22
2019-03-12T12:52:51.252Z,4.62
2019-03-12T12:55:19.801Z,3.75
2019-03-12T12:57:48.373Z,8.93
2019-03-12T13:00:24.030Z,4.92
2019-03-12T13:02:52.665Z,10.40
2019-03-12T13:05:21.290Z,9.85
2019-03-12T13:07:50.009Z,8.58
2019-03-12T13:10:23.477Z,9.60
2019-03-12T13:12:52.185Z,6.40
2019-03-12T13:15:20.805Z,8.43
2019-03-12T13:17:49.379Z,5.33
2019-03-12T13:20:17.997Z,6.85
2019-03-12T13:22:46.578Z,9.98
2019-03-12T13:25:18.387Z,7.92
2019-03-12T13:27:46.941Z,3.90
2019-03-12T13:30:20.282Z,5.72
2019-03-12T13:32:48.924Z,6.90
2019-03-12T13:35:18.447Z,10.15
2019-03-12T13:37:47.828Z,10.95
2019-03-12T13:40:22.757Z,10.75
2019-03-12T13:42:51.577Z,5.30
2019-03-12T13:45:28.503Z,6.65
2019-03-12T13:47:57.235Z,6.20
2019-03-12T13:50:25.969Z,5.40
2019-03-12T13:52:54.721Z,7.30
2019-03-12T13:55:23.450Z,8.05
2019-03-12T13:57:52.117Z,5.53
2019-03-12T14:00:22.909Z,7.30
2019-03-12T14:02:51.534Z,5.42
2019-03-12T14:05:20.448Z,4.95
2019-03-12T14:07:49.065Z,13.22
2019-03-12T14:10:23.682Z,5.28
2019-03-12T14:12:53.367Z,6.97
2019-03-12T14:15:32.072Z,6.15
2019-03-12T14:18:01.135Z,6.62
2019-03-12T14:20:50.833Z,5.45
2019-03-12T14:23:30.974Z,4.15
2019-03-12T14:25:59.617Z,4.85
2019-03-12T14:28:28.239Z,4.60
2019-03-12T14:30:57.111Z,4.87
2019-03-12T14:33:25.606Z,9.43
2019-03-12T14:35:54.178Z,4.60
2019-03-12T14:38:22.865Z,4.60
2019-03-12T14:40:51.440Z,5.75
2019-03-12T14:43:19.991Z,6.75
2019-03-12T14:45:50.404Z,6.58
2019-03-12T14:48:38.073Z,6.22
2019-03-12T14:51:15.830Z,4.00
2019-03-12T14:53:47.201Z,9.13
2019-03-12T14:56:15.779Z,8.65
2019-03-12T14:58:44.396Z,6.97
2019-03-12T15:01:13.145Z,8.18
2019-03-12T15:03:41.694Z,5.50
2019-03-12T15:06:10.336Z,3.98
2019-03-12T15:08:38.982Z,8.98
2019-03-12T15:11:07.821Z,7.42
2019-03-12T15:13:36.440Z,5.28
2019-03-12T15:16:05.022Z,16.30
2019-03-12T15:18:33.677Z,6.53
2019-03-12T15:21:02.386Z,9.75
2019-03-12T15:23:30.910Z,5.65
2019-03-12T15:25:59.482Z,3.40
2019-03-12T15:28:28.128Z,5.25
2019-03-12T15:30:56.690Z,12.37
2019-03-12T15:33:25.262Z,9.18
2019-03-12T15:35:53.818Z,3.45
2019-03-12T15:38:22.392Z,5.80
2019-03-12T15:40:51.202Z,4.65
2019-03-12T15:43:19.774Z,7.22
2019-03-12T15:45:48.321Z,4.17
2019-03-12T15:48:16.901Z,11.93
2019-03-12T15:50:45.781Z,2.25
2019-03-12T15:53:14.354Z,3.95
2019-03-12T15:55:42.933Z,4.80
2019-03-12T15:58:11.516Z,11.78
2019-03-12T16:00:40.230Z,7.30
2019-03-12T16:03:08.821Z,6.47
2019-03-12T16:05:37.364Z,5.62
2019-03-12T16:08:06.075Z,5.80
2019-03-12T16:10:34.717Z,9.08
2019-03-12T16:13:03.390Z,9.08
2019-03-12T16:15:32.001Z,4.22
2019-03-12T16:18:00.610Z,10.40
2019-03-12T16:20:29.169Z,8.93
2019-03-12T16:22:57.783Z,12.07
2019-03-12T16:25:26.334Z,19.45
2019-03-12T16:27:54.910Z,7.50
2019-03-12T16:30:23.631Z,20.45
2019-03-12T16:32:52.201Z,12.00
2019-03-12T16:35:20.762Z,21.50
2019-03-12T16:37:49.340Z,13.72
2019-03-12T16:40:20.001Z,12.33
2019-03-12T16:42:48.574Z,14.13
2019-03-12T16:45:21.296Z,13.48
2019-03-12T16:47:50.077Z,7.35
2019-03-12T16:50:18.970Z,8.18
2019-03-12T16:52:47.743Z,11.35
2019-03-12T16:55:19.963Z,6.05
2019-03-12T16:57:48.598Z,4.15
2019-03-12T17:00:22.075Z,7.55
2019-03-12T17:02:50.630Z,8.35
2019-03-12T17:05:19.205Z,3.75
2019-03-12T17:07:47.769Z,10.30
2019-03-12T17:10:17.949Z,9.40
2019-03-12T17:12:46.537Z,5.25
2019-03-12T17:15:23.069Z,3.45
2019-03-12T17:17:53.161Z,9.00
2019-03-12T17:20:22.378Z,8.05
2019-03-12T17:22:50.925Z,5.85
2019-03-12T17:25:19.504Z,12.98
2019-03-12T17:27:51.255Z,3.60
2019-03-12T17:30:22.215Z,6.75
2019-03-12T17:32:50.760Z,4.33
2019-03-12T17:35:25.210Z,5.75
2019-03-12T17:37:53.761Z,6.55
2019-03-12T17:40:22.622Z,8.98
2019-03-12T17:42:51.174Z,8.18
2019-03-12T17:45:19.745Z,7.12
2019-03-12T17:47:48.376Z,5.10
2019-03-12T17:50:17.218Z,8.75
2019-03-12T17:52:45.824Z,12.28
2019-03-12T17:55:15.040Z,4.58
2019-03-12T17:57:43.654Z,7.42
2019-03-12T18:00:18.393Z,6.10
2019-03-12T18:02:46.941Z,6.33
2019-03-12T18:05:15.605Z,5.70
2019-03-12T18:07:44.476Z,5.50
2019-03-12T18:10:15.400Z,9.20
2019-03-12T18:12:44.117Z,7.70
2019-03-12T18:15:19.266Z,8.45
2019-03-12T18:17:48.031Z,5.08
2019-03-12T18:20:18.894Z,8.83
2019-03-12T18:22:47.449Z,7.22
2019-03-12T18:25:25.250Z,7.30
2019-03-12T18:27:53.802Z,3.47
2019-03-12T18:30:22.424Z,5.03
2019-03-12T18:32:50.930Z,6.17
2019-03-12T18:35:19.508Z,14.68
2019-03-12T18:37:48.129Z,4.37
2019-03-12T18:40:25.379Z,5.78
2019-03-12T18:42:54.070Z,7.85
2019-03-12T18:45:26.993Z,2.72
2019-03-12T18:47:55.551Z,8.80
2019-03-12T18:50:24.121Z,5.20
2019-03-12T18:52:52.668Z,5.62
2019-03-12T18:55:33.473Z,7.15
2019-03-12T18:58:09.024Z,6.47
2019-03-12T19:00:39.641Z,6.12
2019-03-12T19:03:08.198Z,3.95
2019-03-12T19:05:36.769Z,6.10
2019-03-12T19:08:05.410Z,2.30
2019-03-12T19:10:33.957Z,5.60
2019-03-12T19:13:02.577Z,4.37
2019-03-12T19:15:31.149Z,3.65
2019-03-12T19:17:59.700Z,6.05
2019-03-12T19:20:28.272Z,4.00
2019-03-12T19:22:56.974Z,11.80
2019-03-12T19:25:43.365Z,4.72
2019-03-12T19:28:11.918Z,6.25
2019-03-12T19:30:40.761Z,7.35
2019-03-12T19:33:10.957Z,5.42
2019-03-12T19:35:39.525Z,5.70
2019-03-12T19:38:08.153Z,3.75
2019-03-12T19:40:44.362Z,6.22
2019-03-12T19:43:12.983Z,4.85
2019-03-12T19:45:41.640Z,6.60
2019-03-12T19:48:10.236Z,6.35
2019-03-12T19:50:38.900Z,2.52
2019-03-12T19:53:07.437Z,5.50
2019-03-12T19:55:41.728Z,4.50
2019-03-12T19:58:10.341Z,6.87
2019-03-12T20:00:39.822Z,7.25
2019-03-12T20:03:13.306Z,7.60
2019-03-12T20:05:38.748Z,3.00
2019-03-12T20:08:07.469Z,5.10
2019-03-12T20:11:11.063Z,4.87
2019-03-12T20:13:57.920Z,3.47
2019-03-12T20:17:09.132Z,2.85
2019-03-12T20:20:02.317Z,3.62
2019-03-12T20:22:54.975Z,4.67
2019-03-12T20:25:44.593Z,5.92
2019-03-12T20:28:51.503Z,5.95
2019-03-12T20:31:39.511Z,3.45
2019-03-12T20:34:44.801Z,2.45
2019-03-12T20:37:34.002Z,2.40
2019-03-12T20:40:39.325Z,2.45
2019-03-12T20:43:33.521Z,3.30
2019-03-12T20:46:21.678Z,2.52
2019-03-12T20:49:18.798Z,5.05
2019-03-12T20:52:12.925Z,3.30
2019-03-12T20:55:08.785Z,5.22
2019-03-12T20:58:02.894Z,1.67
2019-03-12T21:00:57.111Z,8.03
2019-03-12T21:03:48.018Z,3.05
2019-03-12T21:06:53.270Z,1.75
2019-03-12T21:09:53.725Z,5.83
2019-03-12T21:13:01.745Z,10.93
2019-03-12T21:15:56.217Z,4.12
2019-03-12T21:18:30.421Z,3.27
2019-03-12T21:21:17.222Z,1.50
2019-03-12T21:24:03.731Z,5.22
2019-03-12T21:27:13.191Z,4.30
2019-03-12T21:29:43.935Z,2.30
2019-03-12T21:32:14.049Z,2.72
2019-03-12T21:34:42.733Z,1.87
2019-03-12T21:37:11.378Z,2.83
2019-03-12T21:39:39.934Z,3.05
2019-03-12T21:42:08.664Z,5.15
2019-03-12T21:44:37.198Z,2.25
2019-03-12T21:47:05.850Z,4.35
2019-03-12T21:49:34.568Z,3.08
2019-03-12T21:52:03.219Z,1.17
2019-03-12T21:54:31.773Z,4.03
2019-03-12T21:57:00.341Z,1.87
2019-03-12T21:59:28.897Z,2.42
2019-03-12T22:01:57.483Z,1.65
2019-03-12T22:04:26.034Z,1.62
2019-03-12T22:06:54.611Z,2.25
2019-03-12T22:09:23.165Z,5.15
2019-03-12T22:11:51.738Z,1.15
2019-03-12T22:14:20.293Z,4.62
2019-03-12T22:16:50.631Z,2.33
2019-03-12T22:19:19.197Z,3.52
2019-03-12T22:21:49.393Z,1.90
2019-03-12T22:24:19.594Z,1.85
2019-03-12T22:26:48.189Z,2.30
2019-03-12T22:29:16.737Z,2.52
2019-03-12T22:31:45.315Z,4.50
2019-03-12T22:34:13.871Z,1.30
2019-03-12T22:36:42.471Z,2.52
2019-03-12T22:39:11.088Z,2.05
2019-03-12T22:41:39.648Z,3.25
2019-03-12T22:44:08.220Z,3.22
2019-03-12T22:46:36.770Z,1.20
2019-03-12T22:49:05.348Z,2.77
2019-03-12T22:51:33.899Z,3.92
2019-03-12T22:54:02.541Z,2.87
2019-03-12T22:56:31.098Z,4.15
2019-03-12T22:58:59.665Z,3.08
2019-03-12T23:01:28.212Z,4.60
2019-03-12T23:03:56.784Z,2.90
2019-03-12T23:06:28.565Z,9.68
2019-03-12T23:08:57.100Z,6.05
2019-03-12T23:11:26.486Z,5.58
2019-03-12T23:13:55.063Z,3.75
2019-03-12T23:16:23.609Z,5.53
2019-03-12T23:18:52.190Z,1.70
2019-03-12T23:21:20.805Z,3.20
2019-03-12T23:23:49.381Z,3.17
2019-03-12T23:26:17.934Z,3.35
2019-03-12T23:28:46.573Z,2.50
2019-03-12T23:31:15.125Z,1.62
2019-03-12T23:33:43.770Z,2.42
2019-03-12T23:36:12.313Z,2.95
2019-03-12T23:38:40.883Z,1.52
2019-03-12T23:41:09.433Z,1.72
2019-03-12T23:43:38.168Z,4.42
2019-03-12T23:46:06.806Z,3.08
2019-03-12T23:48:35.372Z,1.10
2019-03-12T23:51:04.061Z,2.47
2019-03-12T23:53:32.635Z,2.30
2019-03-12T23:56:01.257Z,3.85
2019-03-12T23:58:31.173Z,2.98
